createdAt,value
2022-11-20T00:00:07.474Z,19.2
2022-11-20T00:01:23.763Z,17.8
2022-11-20T00:02:40.068Z,19.8
2022-11-20T00:03:56.368Z,18.4
2022-11-20T00:05:12.647Z,22.2
2022-11-20T00:06:28.948Z,21.9
2022-11-20T00:07:45.242Z,18.6
2022-11-20T00:09:01.537Z,18.3
2022-11-20T00:10:16.847Z,19.6
2022-11-20T00:11:33.137Z,18.3
2022-11-20T00:12:49.440Z,22.9
2022-11-20T00:14:05.720Z,17.7
2022-11-20T00:15:22.020Z,20.7
2022-11-20T00:16:38.322Z,18.6
2022-11-20T00:17:54.616Z,19.8
2022-11-20T00:19:10.901Z,18.3
2022-11-20T00:20:27.206Z,19.2
2022-11-20T00:21:43.483Z,18.1
2022-11-20T00:22:59.789Z,16.4
2022-11-20T00:24:16.090Z,18.1
2022-11-20T00:25:32.379Z,19.4
2022-11-20T00:26:47.674Z,17.1
2022-11-20T00:28:03.974Z,18
2022-11-20T00:29:20.282Z,17.2
2022-11-20T00:30:36.566Z,17.4
2022-11-20T00:31:52.859Z,17.5
2022-11-20T00:33:09.158Z,19
2022-11-20T00:34:25.445Z,19.2
2022-11-20T00:35:41.745Z,16.4
2022-11-20T00:36:58.035Z,18.3
2022-11-20T00:38:14.329Z,19.5
2022-11-20T00:39:30.632Z,16.6
2022-11-20T00:40:46.910Z,17.2
2022-11-20T00:42:03.222Z,20.2
2022-11-20T00:43:18.517Z,19.2
2022-11-20T00:44:34.815Z,18.5
2022-11-20T00:47:07.408Z,16.1
2022-11-20T00:48:23.711Z,14.1
2022-11-20T00:49:39.998Z,17.5
2022-11-20T00:50:56.283Z,16.4
2022-11-20T00:52:12.578Z,16
2022-11-20T00:53:28.867Z,18.3
2022-11-20T00:54:45.173Z,18.5
2022-11-20T00:56:01.461Z,16.4
2022-11-20T00:57:17.764Z,15.4
2022-11-20T00:58:34.060Z,16.9
2022-11-20T00:59:49.356Z,18.8
2022-11-20T01:01:05.657Z,15.8
2022-11-20T01:02:21.944Z,16.6
2022-11-20T01:03:38.256Z,18.5
2022-11-20T01:04:54.000Z,16.6
2022-11-20T01:06:10.825Z,16.7
2022-11-20T01:07:27.134Z,16.5
2022-11-20T01:08:43.423Z,17.1
2022-11-20T01:09:59.712Z,18.7
2022-11-20T01:11:16.004Z,21.3
2022-11-20T01:12:32.310Z,17.6
2022-11-20T01:13:48.605Z,19
2022-11-20T01:15:04.888Z,16.9
2022-11-20T01:16:20.206Z,16.6
2022-11-20T01:17:36.508Z,19.3
2022-11-20T01:18:52.802Z,22
2022-11-20T01:20:09.089Z,19.2
2022-11-20T01:21:25.373Z,18.2
2022-11-20T01:22:41.670Z,15.3
2022-11-20T01:23:57.968Z,15.1
2022-11-20T01:25:14.263Z,18.2
2022-11-20T01:26:30.566Z,17.5
2022-11-20T01:27:46.846Z,15.4
2022-11-20T01:29:03.140Z,17.1
2022-11-20T01:30:19.440Z,18.9
2022-11-20T01:31:35.744Z,29.6
2022-11-20T01:32:51.039Z,33.5
2022-11-20T01:34:07.345Z,24.9
2022-11-20T01:35:23.629Z,25.7
2022-11-20T01:36:39.920Z,29.7
2022-11-20T01:37:56.218Z,30
2022-11-20T01:39:12.510Z,24.4
2022-11-20T01:40:28.815Z,21.6
2022-11-20T01:41:45.114Z,18.4
2022-11-20T01:43:01.401Z,19.4
2022-11-20T01:44:17.696Z,20.2
2022-11-20T01:45:33.980Z,16.9
2022-11-20T01:46:50.287Z,17.5
2022-11-20T01:48:06.575Z,18.6
2022-11-20T01:49:21.878Z,16.9
2022-11-20T01:50:38.185Z,23.2
2022-11-20T01:51:54.466Z,20.8
2022-11-20T01:53:10.760Z,21.3
2022-11-20T01:54:27.060Z,18
2022-11-20T01:55:43.361Z,21.8
2022-11-20T01:56:59.649Z,22.4
2022-11-20T01:58:15.939Z,18.4
2022-11-20T01:59:32.233Z,22.7
2022-11-20T02:00:48.532Z,22.2
2022-11-20T02:02:04.837Z,20
2022-11-20T02:03:21.132Z,21.9
2022-11-20T02:04:37.424Z,22.7
2022-11-20T02:05:52.726Z,23.3
2022-11-20T02:07:09.016Z,24
2022-11-20T02:09:41.569Z,22
2022-11-20T02:10:57.862Z,24.6
2022-11-20T02:12:14.155Z,22.3
2022-11-20T02:13:30.465Z,26.8
2022-11-20T02:14:46.749Z,21.2
2022-11-20T02:16:03.042Z,24.6
2022-11-20T02:17:19.345Z,26.6
2022-11-20T02:18:35.636Z,23.7
2022-11-20T02:19:51.930Z,26.6
2022-11-20T02:21:08.235Z,23.6
2022-11-20T02:22:23.530Z,24
2022-11-20T02:23:39.828Z,24.6
2022-11-20T02:24:56.123Z,27.9
2022-11-20T02:26:12.414Z,22.9
2022-11-20T02:27:28.710Z,25.9
2022-11-20T02:28:44.996Z,24.4
2022-11-20T02:30:01.308Z,21
2022-11-20T02:31:17.586Z,21.7
2022-11-20T02:32:33.877Z,21.6
2022-11-20T02:33:50.172Z,25.5
2022-11-20T02:35:06.482Z,19.8
2022-11-20T02:36:22.769Z,22.9
2022-11-20T02:37:39.066Z,18.8
2022-11-20T02:38:54.367Z,21.6
2022-11-20T02:40:10.674Z,24.5
2022-11-20T02:41:26.968Z,23.4
2022-11-20T02:42:43.264Z,22.3
2022-11-20T02:43:59.547Z,22.7
2022-11-20T02:45:15.839Z,27.2
2022-11-20T02:46:32.146Z,19.6
2022-11-20T02:47:48.442Z,20.6
2022-11-20T02:49:04.723Z,22.5
2022-11-20T02:50:21.013Z,27.9
2022-11-20T02:51:37.312Z,24.5
2022-11-20T02:52:53.615Z,24.8
2022-11-20T02:54:09.903Z,21.8
2022-11-20T02:55:25.221Z,23.6
2022-11-20T02:56:41.514Z,22.3
2022-11-20T02:57:57.794Z,27.1
2022-11-20T02:59:14.093Z,27.3
2022-11-20T03:00:30.387Z,27.9
2022-11-20T03:01:46.693Z,27.6
2022-11-20T03:03:02.984Z,28
2022-11-20T03:04:19.278Z,27.6
2022-11-20T03:05:35.567Z,23.1
2022-11-20T03:06:51.864Z,25.8
2022-11-20T03:08:08.157Z,23.7
2022-11-20T03:09:24.441Z,22
2022-11-20T03:10:40.752Z,28.3
2022-11-20T03:11:56.055Z,23.7
2022-11-20T03:13:12.341Z,25.8
2022-11-20T03:14:28.636Z,28.5
2022-11-20T03:15:44.927Z,24.5
2022-11-20T03:17:01.223Z,27.6
2022-11-20T03:18:17.535Z,23.2
2022-11-20T03:19:33.821Z,20.5
2022-11-20T03:20:50.103Z,22.8
2022-11-20T03:22:06.410Z,21.8
2022-11-20T03:23:22.692Z,27.7
2022-11-20T03:24:38.992Z,24.4
2022-11-20T03:25:55.286Z,24.2
2022-11-20T03:27:11.573Z,26.5
2022-11-20T03:28:26.885Z,24.1
2022-11-20T03:29:43.193Z,28.5
2022-11-20T03:30:59.488Z,24.1
2022-11-20T03:32:15.779Z,24.2
2022-11-20T03:33:32.078Z,24
2022-11-20T03:34:48.355Z,22.3
2022-11-20T03:36:04.664Z,25.2
2022-11-20T03:37:20.957Z,25
2022-11-20T03:38:37.243Z,24.1
2022-11-20T03:39:53.549Z,27.4
2022-11-20T03:41:09.838Z,23.1
2022-11-20T03:42:26.123Z,24.6
2022-11-20T03:43:42.429Z,22.8
2022-11-20T03:44:57.723Z,23.9
2022-11-20T03:46:14.022Z,25.5
2022-11-20T03:47:30.311Z,25.9
2022-11-20T03:48:46.612Z,22.9
2022-11-20T03:50:02.911Z,24.4
2022-11-20T03:51:19.202Z,26.6
2022-11-20T03:52:34.519Z,25.2
2022-11-20T03:53:50.811Z,22.3
2022-11-20T03:55:07.100Z,22.2
2022-11-20T03:56:23.400Z,23.6
2022-11-20T03:57:39.697Z,25.2
2022-11-20T03:58:55.989Z,24.1
2022-11-20T04:00:12.292Z,22.5
2022-11-20T04:01:28.568Z,21.4
2022-11-20T04:02:44.877Z,26.6
2022-11-20T04:04:01.169Z,24
2022-11-20T04:05:17.455Z,24.1
2022-11-20T04:06:33.754Z,26.1
2022-11-20T04:07:50.056Z,20.9
2022-11-20T04:09:05.351Z,23.9
2022-11-20T04:10:21.646Z,20.6
2022-11-20T04:11:37.953Z,23.4
2022-11-20T04:12:54.240Z,22.9
2022-11-20T04:14:10.537Z,23.9
2022-11-20T04:15:26.838Z,22.6
2022-11-20T04:16:43.120Z,23.5
2022-11-20T04:17:59.424Z,21.6
2022-11-20T04:19:15.715Z,21.3
2022-11-20T04:20:32.012Z,26.1
2022-11-20T04:21:48.304Z,19.5
2022-11-20T04:23:04.598Z,22.9
2022-11-20T04:24:20.897Z,20.6
2022-11-20T04:25:36.191Z,24.3
2022-11-20T04:26:52.482Z,22.6
2022-11-20T04:28:08.785Z,22.7
2022-11-20T04:29:25.090Z,18.4
2022-11-20T04:30:41.367Z,23.2
2022-11-20T04:31:57.666Z,23.9
2022-11-20T04:33:13.954Z,22.2
2022-11-20T04:34:30.000Z,22.1
2022-11-20T04:35:46.559Z,26.2
2022-11-20T04:37:02.841Z,20.3
2022-11-20T04:38:19.134Z,25.8
2022-11-20T04:39:35.426Z,22.1
2022-11-20T04:40:51.736Z,24
2022-11-20T04:42:07.032Z,23.9
2022-11-20T04:43:23.342Z,20.7
2022-11-20T04:44:39.623Z,22.3
2022-11-20T04:45:55.924Z,24.9
2022-11-20T04:47:12.206Z,24.1
2022-11-20T04:48:28.498Z,27.2
2022-11-20T04:49:44.810Z,20.8
2022-11-20T04:51:01.106Z,22.3
2022-11-20T04:52:17.387Z,22.6
2022-11-20T04:53:33.693Z,24.4
2022-11-20T04:54:49.976Z,25.4
2022-11-20T04:56:06.270Z,24
2022-11-20T04:57:22.562Z,23.2
2022-11-20T04:58:37.874Z,22.7
2022-11-20T04:59:54.171Z,21.1
2022-11-20T05:01:10.471Z,22.3
2022-11-20T05:02:26.751Z,24
2022-11-20T05:03:43.061Z,23.7
2022-11-20T05:04:59.344Z,26.1
2022-11-20T05:06:15.638Z,24
2022-11-20T05:07:31.935Z,25.7
2022-11-20T05:08:48.240Z,19.7
2022-11-20T05:10:04.520Z,21.3
2022-11-20T05:11:20.811Z,20.2
2022-11-20T05:12:37.117Z,18
2022-11-20T05:13:53.407Z,25.1
2022-11-20T05:15:08.712Z,18.2
2022-11-20T05:16:25.019Z,23.3
2022-11-20T05:17:41.314Z,23.1
2022-11-20T05:18:57.604Z,21.1
2022-11-20T05:20:13.900Z,23.3
2022-11-20T05:21:30.189Z,19.2
2022-11-20T05:22:46.489Z,20.9
2022-11-20T05:24:02.771Z,20
2022-11-20T05:25:19.069Z,20
2022-11-20T05:26:35.374Z,20.6
2022-11-20T05:27:51.656Z,18.5
2022-11-20T05:29:07.942Z,23.5
2022-11-20T05:30:24.245Z,24
2022-11-20T05:31:39.562Z,20.6
2022-11-20T05:32:55.861Z,20.2
2022-11-20T05:34:12.135Z,21.8
2022-11-20T05:35:28.440Z,22.3
2022-11-20T05:36:44.740Z,19.7
2022-11-20T05:38:01.023Z,22.6
2022-11-20T05:39:17.318Z,20.9
2022-11-20T05:40:33.624Z,18.4
2022-11-20T05:41:49.906Z,22.1
2022-11-20T05:43:06.212Z,22.8
2022-11-20T05:44:22.508Z,20.7
2022-11-20T05:45:38.793Z,20.3
2022-11-20T05:46:55.090Z,25.8
2022-11-20T05:48:10.405Z,21.6
2022-11-20T05:49:26.702Z,19.4
2022-11-20T05:50:42.978Z,22.9
2022-11-20T05:51:59.277Z,20.4
2022-11-20T05:53:15.575Z,20.3
2022-11-20T05:54:31.869Z,20.8
2022-11-20T05:55:48.163Z,24.6
2022-11-20T05:57:04.456Z,21.4
2022-11-20T05:58:20.759Z,21.1
2022-11-20T05:59:37.045Z,21.6
2022-11-20T06:00:53.331Z,20.4
2022-11-20T06:02:09.591Z,22.3
2022-11-20T06:03:25.824Z,20.6
2022-11-20T06:04:41.089Z,20.2
2022-11-20T06:05:57.322Z,18
2022-11-20T06:07:13.616Z,21.4
2022-11-20T06:08:29.878Z,19.2
2022-11-20T06:09:46.123Z,20.7
2022-11-20T06:11:02.373Z,18
2022-11-20T06:12:18.612Z,21.1
2022-11-20T06:13:34.852Z,17.9
2022-11-20T06:14:51.094Z,19
2022-11-20T06:16:07.318Z,17.5
2022-11-20T06:17:23.567Z,17.8
2022-11-20T06:18:39.817Z,16.3
2022-11-20T06:19:56.048Z,17.3
2022-11-20T06:21:11.310Z,19.1
2022-11-20T06:22:27.537Z,18.5
2022-11-20T06:23:43.793Z,18.4
2022-11-20T06:25:00.026Z,19.4
2022-11-20T06:26:16.270Z,16.9
2022-11-20T06:27:32.511Z,18.8
2022-11-20T06:28:48.751Z,17.4
2022-11-20T06:30:04.994Z,16.5
2022-11-20T06:31:21.232Z,18.6
2022-11-20T06:32:37.474Z,17.4
2022-11-20T06:33:53.700Z,14.7
2022-11-20T06:35:09.943Z,17.4
2022-11-20T06:36:26.186Z,18.9
2022-11-20T06:38:57.680Z,18.7
2022-11-20T06:40:13.926Z,17.9
2022-11-20T06:41:30.168Z,19.7
2022-11-20T06:42:46.407Z,18.1
2022-11-20T06:44:02.635Z,17.2
2022-11-20T06:45:18.874Z,18.9
2022-11-20T06:46:35.117Z,15.9
2022-11-20T06:47:51.374Z,18.5
2022-11-20T06:49:07.608Z,17.8
2022-11-20T06:50:23.852Z,17.4
2022-11-20T06:51:40.082Z,26.9
2022-11-20T06:52:56.318Z,18.2
2022-11-20T06:54:11.580Z,21.7
2022-11-20T06:55:27.812Z,17.1
2022-11-20T06:56:44.067Z,16
2022-11-20T06:58:00.303Z,17
2022-11-20T06:59:16.546Z,13.3
2022-11-20T07:00:32.791Z,20.7
2022-11-20T07:01:49.018Z,15.9
2022-11-20T07:03:05.261Z,16.9
2022-11-20T07:04:21.494Z,17.2
2022-11-20T07:05:37.739Z,22.2
2022-11-20T07:06:53.993Z,18.6
2022-11-20T07:08:10.228Z,20.2
2022-11-20T07:09:26.466Z,21.8
2022-11-20T07:10:41.726Z,18
2022-11-20T07:11:57.958Z,20.1
2022-11-20T07:13:14.207Z,17.5
2022-11-20T07:14:30.452Z,16.5
2022-11-20T07:15:46.675Z,17.7
2022-11-20T07:17:02.925Z,15.7
2022-11-20T07:18:19.161Z,22.4
2022-11-20T07:19:35.409Z,18.2
2022-11-20T07:20:51.652Z,19.3
2022-11-20T07:22:07.886Z,19
2022-11-20T07:23:24.119Z,16.2
2022-11-20T07:24:40.362Z,14.3
2022-11-20T07:25:56.613Z,14.7
2022-11-20T07:27:11.862Z,16.4
2022-11-20T07:28:28.108Z,14.9
2022-11-20T07:29:44.339Z,15.2
2022-11-20T07:31:00.572Z,16.2
2022-11-20T07:32:16.827Z,17.2
2022-11-20T07:33:33.054Z,13.3
2022-11-20T07:34:49.297Z,17.7
2022-11-20T07:36:05.544Z,13.7
2022-11-20T07:37:21.787Z,16
2022-11-20T07:38:38.016Z,15.6
2022-11-20T07:39:54.266Z,14.1
2022-11-20T07:41:10.498Z,16.3
2022-11-20T07:42:26.750Z,20.3
2022-11-20T07:43:42.003Z,16.6
2022-11-20T07:44:58.247Z,17.5
2022-11-20T07:46:14.486Z,18.2
2022-11-20T07:47:30.710Z,14
2022-11-20T07:48:46.955Z,17.3
2022-11-20T07:50:03.207Z,14.6
2022-11-20T07:51:19.449Z,18.2
2022-11-20T07:52:35.674Z,19.1
2022-11-20T07:53:51.912Z,17.3
2022-11-20T07:55:08.169Z,18.4
2022-11-20T07:56:24.410Z,18.2
2022-11-20T07:57:40.635Z,17.3
2022-11-20T07:58:56.881Z,18.6
2022-11-20T08:00:12.130Z,18.1
2022-11-20T08:01:28.382Z,19.2
2022-11-20T08:02:44.627Z,16.5
2022-11-20T08:04:00.848Z,16.6
2022-11-20T08:05:17.094Z,19
2022-11-20T08:06:33.338Z,21
2022-11-20T08:07:48.592Z,21.8
2022-11-20T08:09:04.837Z,17.8
2022-11-20T08:10:21.079Z,17.5
2022-11-20T08:11:37.328Z,20.1
2022-11-20T08:12:53.558Z,15.8
2022-11-20T08:14:09.806Z,17.5
2022-11-20T08:15:26.035Z,20.6
2022-11-20T08:16:42.275Z,16.9
2022-11-20T08:17:58.511Z,18.7
2022-11-20T08:19:14.762Z,21.1
2022-11-20T08:20:31.008Z,18.9
2022-11-20T08:21:47.264Z,16.5
2022-11-20T08:23:03.496Z,18.9
2022-11-20T08:24:18.770Z,16.7
2022-11-20T08:25:34.996Z,19.5
2022-11-20T08:26:51.244Z,21
2022-11-20T08:28:07.491Z,19.5
2022-11-20T08:29:23.714Z,23.1
2022-11-20T08:30:39.970Z,21.9
2022-11-20T08:31:56.196Z,18.1
2022-11-20T08:33:12.441Z,18.9
2022-11-20T08:34:28.678Z,18.4
2022-11-20T08:35:44.926Z,18.4
2022-11-20T08:37:01.159Z,14.7
2022-11-20T08:38:17.395Z,18.6
2022-11-20T08:39:33.637Z,17.7
2022-11-20T08:40:48.902Z,18.7
2022-11-20T08:42:05.139Z,17.1
2022-11-20T08:43:21.372Z,20.3
2022-11-20T08:44:37.618Z,17.6
2022-11-20T08:45:53.856Z,19.7
2022-11-20T08:47:10.101Z,17.4
2022-11-20T08:48:26.324Z,19
2022-11-20T08:49:42.563Z,21.1
2022-11-20T08:50:58.807Z,19
2022-11-20T08:52:15.047Z,22.2
2022-11-20T08:53:31.293Z,20.8
2022-11-20T08:54:47.522Z,22.6
2022-11-20T08:56:03.768Z,19.1
2022-11-20T08:57:19.031Z,18.9
2022-11-20T08:58:35.269Z,19.4
2022-11-20T08:59:51.499Z,19.8
2022-11-20T09:01:07.750Z,21.8
2022-11-20T09:02:23.988Z,19.8
2022-11-20T09:03:40.218Z,21.1
2022-11-20T09:04:56.457Z,17.1
2022-11-20T09:06:12.689Z,20.5
2022-11-20T09:07:28.934Z,23.5
2022-11-20T09:08:45.174Z,19
2022-11-20T09:10:01.410Z,18.9
2022-11-20T09:11:17.649Z,23.4
2022-11-20T09:12:33.894Z,18.3
2022-11-20T09:13:49.154Z,18.3
2022-11-20T09:15:05.384Z,30.6
2022-11-20T09:16:21.616Z,17.6
2022-11-20T09:17:37.872Z,19.4
2022-11-20T09:18:54.099Z,23
2022-11-20T09:20:10.335Z,18.1
2022-11-20T09:21:26.587Z,19.4
2022-11-20T09:22:42.822Z,23.2
2022-11-20T09:23:59.067Z,17.2
2022-11-20T09:25:15.289Z,17.9
2022-11-20T09:26:31.541Z,18.2
2022-11-20T09:27:47.783Z,18.6
2022-11-20T09:29:04.007Z,20.5
2022-11-20T09:30:19.267Z,21.5
2022-11-20T09:31:35.519Z,20.3
2022-11-20T09:32:51.744Z,19.3
2022-11-20T09:34:07.000Z,18.4
2022-11-20T09:35:24.217Z,19
2022-11-20T09:36:40.461Z,23.5
2022-11-20T09:37:56.696Z,20.4
2022-11-20T09:39:12.940Z,18
2022-11-20T09:40:29.179Z,17.3
2022-11-20T09:41:45.411Z,18.7
2022-11-20T09:43:01.660Z,18.8
2022-11-20T09:44:17.906Z,19.5
2022-11-20T09:45:34.144Z,22.2
2022-11-20T09:46:49.401Z,19.6
2022-11-20T09:48:05.631Z,19.4
2022-11-20T09:49:21.879Z,20.2
2022-11-20T09:50:38.108Z,21.7
2022-11-20T09:51:54.358Z,22.4
2022-11-20T09:53:10.586Z,20.4
2022-11-20T09:54:26.829Z,19.8
2022-11-20T09:55:43.072Z,20
2022-11-20T09:56:59.300Z,19
2022-11-20T09:58:15.537Z,21
2022-11-20T09:59:31.790Z,21.8
2022-11-20T10:00:48.032Z,20.3
2022-11-20T10:02:04.273Z,20.5
2022-11-20T10:03:19.519Z,19.6
2022-11-20T10:04:35.760Z,20.2
2022-11-20T10:05:51.991Z,20.3
2022-11-20T10:07:08.235Z,23.5
2022-11-20T10:08:24.473Z,17.6
2022-11-20T10:09:40.725Z,20.6
2022-11-20T10:10:56.966Z,19
2022-11-20T10:12:13.191Z,19.8
2022-11-20T10:13:29.432Z,20.9
2022-11-20T10:14:45.680Z,22.4
2022-11-20T10:16:01.925Z,21.4
2022-11-20T10:17:18.166Z,19.3
2022-11-20T10:18:34.393Z,19.9
2022-11-20T10:19:49.643Z,23.2
2022-11-20T10:21:05.890Z,17.6
2022-11-20T10:22:22.132Z,19.1
2022-11-20T10:23:38.363Z,21.4
2022-11-20T10:24:54.614Z,20.4
2022-11-20T10:26:10.846Z,21.3
2022-11-20T10:27:27.089Z,18.7
2022-11-20T10:28:43.323Z,18.4
2022-11-20T10:29:59.565Z,18.3
2022-11-20T10:31:15.815Z,19.9
2022-11-20T10:32:32.036Z,18.4
2022-11-20T10:33:48.286Z,19
2022-11-20T10:35:04.516Z,16.1
2022-11-20T10:36:19.778Z,16.7
2022-11-20T10:37:36.021Z,16.5
2022-11-20T10:38:52.269Z,16.4
2022-11-20T10:40:08.499Z,18.2
2022-11-20T10:41:24.736Z,16.3
2022-11-20T10:42:40.978Z,16.5
2022-11-20T10:43:57.210Z,16.6
2022-11-20T10:45:13.447Z,16.3
2022-11-20T10:46:29.687Z,15.8
2022-11-20T10:47:45.940Z,15.6
2022-11-20T10:49:02.169Z,18.7
2022-11-20T10:50:18.416Z,13.6
2022-11-20T10:51:34.661Z,14.1
2022-11-20T10:52:49.908Z,16.1
2022-11-20T10:54:06.140Z,15.3
2022-11-20T10:55:22.398Z,10.8
2022-11-20T10:56:38.634Z,14.2
2022-11-20T10:57:54.874Z,14.4
2022-11-20T10:59:11.108Z,13.8
2022-11-20T11:00:27.349Z,15.3
2022-11-20T11:01:43.000Z,11.6
2022-11-20T11:02:59.831Z,13.9
2022-11-20T11:04:16.069Z,13.6
2022-11-20T11:05:32.308Z,13.7
2022-11-20T11:06:48.544Z,14
2022-11-20T11:08:04.791Z,12.1
2022-11-20T11:09:20.031Z,13.1
2022-11-20T11:10:36.282Z,12
2022-11-20T11:11:52.523Z,11.5
2022-11-20T11:13:08.760Z,12.2
2022-11-20T11:14:25.005Z,11.2
2022-11-20T11:15:41.240Z,9.6
2022-11-20T11:16:57.485Z,11.1
2022-11-20T11:18:13.707Z,13.7
2022-11-20T11:19:29.958Z,9.1
2022-11-20T11:20:46.197Z,8.2
2022-11-20T11:22:02.425Z,6.7
2022-11-20T11:23:18.675Z,6.2
2022-11-20T11:24:34.910Z,8.5
2022-11-20T11:25:51.270Z,6.4
2022-11-20T11:27:07.525Z,6.4
2022-11-20T11:28:23.759Z,6.7
2022-11-20T11:29:39.996Z,7.1
2022-11-20T11:30:56.241Z,6.7
2022-11-20T11:32:12.473Z,6.5
2022-11-20T11:33:28.703Z,6.5
2022-11-20T11:34:44.957Z,5.9
2022-11-20T11:36:01.193Z,6.8
2022-11-20T11:37:17.434Z,5.6
2022-11-20T11:38:33.675Z,6.9
2022-11-20T11:39:49.906Z,6.3
2022-11-20T11:41:06.145Z,6.7
2022-11-20T11:42:21.412Z,7.3
2022-11-20T11:43:37.653Z,7
2022-11-20T11:44:53.875Z,7.8
2022-11-20T11:46:10.120Z,6.5
2022-11-20T11:47:26.363Z,5.4
2022-11-20T11:48:42.593Z,7.3
2022-11-20T11:49:58.851Z,8.6
2022-11-20T11:51:15.088Z,7.6
2022-11-20T11:52:31.316Z,5.3
2022-11-20T11:53:47.560Z,6.8
2022-11-20T11:55:03.798Z,4.9
2022-11-20T11:56:20.030Z,7.5
2022-11-20T11:57:36.269Z,6.2
2022-11-20T11:58:51.529Z,7.3
2022-11-20T12:00:07.779Z,6
2022-11-20T12:01:24.005Z,6.3
2022-11-20T12:02:40.262Z,5.3
2022-11-20T12:03:56.486Z,6.8
2022-11-20T12:05:12.740Z,6.8
2022-11-20T12:06:28.978Z,5.9
2022-11-20T12:07:45.210Z,5.1
2022-11-20T12:09:01.443Z,6.5
2022-11-20T12:10:17.693Z,6.3
2022-11-20T12:11:33.937Z,6.3
2022-11-20T12:12:50.161Z,5.2
2022-11-20T12:14:06.397Z,7.2
2022-11-20T12:15:21.663Z,8.3
2022-11-20T12:16:37.894Z,6.4
2022-11-20T12:17:54.144Z,6.8
2022-11-20T12:19:10.391Z,7.8
2022-11-20T12:20:26.623Z,6.9
2022-11-20T12:21:42.851Z,9.1
2022-11-20T12:22:58.124Z,7.5
2022-11-20T12:24:14.352Z,7.8
2022-11-20T12:25:30.592Z,7.6
2022-11-20T12:26:46.835Z,6.1
2022-11-20T12:28:03.082Z,7.1
2022-11-20T12:29:19.320Z,7.6
2022-11-20T12:30:35.565Z,8.9
2022-11-20T12:31:51.794Z,9.6
2022-11-20T12:33:08.031Z,8.9
2022-11-20T12:34:24.281Z,8.5
2022-11-20T12:35:40.517Z,8.3
2022-11-20T12:36:56.000Z,7.5
2022-11-20T12:38:12.997Z,8.3
2022-11-20T12:39:28.000Z,9
2022-11-20T12:40:44.481Z,7.4
2022-11-20T12:42:00.741Z,10
2022-11-20T12:43:16.964Z,10.5
2022-11-20T12:44:33.210Z,10.1
2022-11-20T12:45:49.460Z,10.9
2022-11-20T12:47:05.681Z,12.1
2022-11-20T12:48:21.921Z,9.2
2022-11-20T12:49:38.167Z,9.3
2022-11-20T12:50:54.414Z,8.1
2022-11-20T12:52:10.654Z,8.1
2022-11-20T12:53:26.880Z,8.2
2022-11-20T12:54:43.129Z,8.5
2022-11-20T12:55:58.379Z,8.3
2022-11-20T12:57:14.626Z,10.5
2022-11-20T12:58:30.858Z,9.1
2022-11-20T12:59:47.099Z,11
2022-11-20T13:01:03.329Z,11.4
2022-11-20T13:02:19.576Z,10.9
2022-11-20T13:03:35.822Z,12.8
2022-11-20T13:04:52.052Z,10.5
2022-11-20T13:06:08.297Z,11.3
2022-11-20T13:07:24.542Z,11.3
2022-11-20T13:08:40.770Z,8.9
2022-11-20T13:09:57.008Z,9
2022-11-20T13:11:13.263Z,10.2
2022-11-20T13:12:28.506Z,9.9
2022-11-20T13:13:44.752Z,9.8
2022-11-20T13:15:00.988Z,9.8
2022-11-20T13:16:17.225Z,12
2022-11-20T13:17:33.473Z,10.3
2022-11-20T13:18:49.712Z,11.9
2022-11-20T13:20:05.953Z,11.3
2022-11-20T13:21:22.186Z,11.2
2022-11-20T13:22:38.423Z,11.6
2022-11-20T13:23:54.656Z,11
2022-11-20T13:25:10.907Z,10
2022-11-20T13:26:27.147Z,11.6
2022-11-20T13:27:43.370Z,9
2022-11-20T13:28:58.635Z,8.5
2022-11-20T13:30:14.869Z,10.7
2022-11-20T13:31:31.113Z,10.8
2022-11-20T13:32:47.346Z,10
2022-11-20T13:34:03.586Z,12.9
2022-11-20T13:35:19.821Z,8.9
2022-11-20T13:36:36.081Z,10.5
2022-11-20T13:37:52.314Z,11
2022-11-20T13:39:08.555Z,9.3
2022-11-20T13:40:24.780Z,12.4
2022-11-20T13:41:41.033Z,8.5
2022-11-20T13:42:57.273Z,10.1
2022-11-20T13:44:13.508Z,11.9
2022-11-20T13:45:28.751Z,12.2
2022-11-20T13:46:44.995Z,9.7
2022-11-20T13:48:01.247Z,8.2
2022-11-20T13:49:17.488Z,11.6
2022-11-20T13:50:33.710Z,10.3
2022-11-20T13:51:49.968Z,9.5
2022-11-20T13:53:06.202Z,9.2
2022-11-20T13:54:22.427Z,8.4
2022-11-20T13:55:38.680Z,8.2
2022-11-20T13:56:54.914Z,9.4
2022-11-20T13:58:11.155Z,9.9
2022-11-20T13:59:27.400Z,7.4
2022-11-20T14:00:43.634Z,7.6
2022-11-20T14:01:58.882Z,9.6
2022-11-20T14:03:15.141Z,8.1
2022-11-20T14:04:31.370Z,8.9
2022-11-20T14:05:47.608Z,8.1
2022-11-20T14:07:03.843Z,11.1
2022-11-20T14:08:20.086Z,9.3
2022-11-20T14:09:36.335Z,9.3
2022-11-20T14:10:52.566Z,9.4
2022-11-20T14:12:08.800Z,8.4
2022-11-20T14:13:25.042Z,7.8
2022-11-20T14:14:41.290Z,8.9
2022-11-20T14:15:57.528Z,7.4
2022-11-20T14:17:13.766Z,10.1
2022-11-20T14:18:29.015Z,10.4
2022-11-20T14:19:45.254Z,10.6
2022-11-20T14:21:01.492Z,8
2022-11-20T14:22:17.731Z,10.1
2022-11-20T14:23:33.963Z,9.8
2022-11-20T14:24:50.213Z,9.1
2022-11-20T14:26:06.456Z,9.3
2022-11-20T14:27:22.693Z,10
2022-11-20T14:28:38.938Z,10.1
2022-11-20T14:29:55.172Z,10.5
2022-11-20T14:31:11.399Z,9.7
2022-11-20T14:32:27.649Z,10.9
2022-11-20T14:33:43.889Z,10.7
2022-11-20T14:34:59.145Z,10.2
2022-11-20T14:36:15.385Z,11.2
2022-11-20T14:37:31.613Z,9.4
2022-11-20T14:38:47.865Z,10.7
2022-11-20T14:40:04.102Z,8.8
2022-11-20T14:41:20.339Z,9
2022-11-20T14:42:36.571Z,10.8
2022-11-20T14:43:52.826Z,10.5
2022-11-20T14:45:09.067Z,8.1
2022-11-20T14:46:25.297Z,11.4
2022-11-20T14:47:41.548Z,10.9
2022-11-20T14:48:57.772Z,11.6
2022-11-20T14:50:14.021Z,21.5
2022-11-20T14:51:29.265Z,14.9
2022-11-20T14:52:45.518Z,12.3
2022-11-20T14:54:01.748Z,9.3
2022-11-20T14:55:17.990Z,9.4
2022-11-20T14:56:34.233Z,12.8
2022-11-20T14:57:50.469Z,12.2
2022-11-20T14:59:06.707Z,9.3
2022-11-20T15:00:22.944Z,11.8
2022-11-20T15:01:39.197Z,11.2
2022-11-20T15:02:55.436Z,12.4
2022-11-20T15:04:11.657Z,8.8
2022-11-20T15:05:27.898Z,11.1
2022-11-20T15:06:44.140Z,9.4
2022-11-20T15:07:59.413Z,9.5
2022-11-20T15:09:15.638Z,11.7
2022-11-20T15:10:31.888Z,11.9
2022-11-20T15:11:48.125Z,10.2
2022-11-20T15:13:04.361Z,10.1
2022-11-20T15:14:20.593Z,8.6
2022-11-20T15:15:36.842Z,12
2022-11-20T15:16:53.078Z,9.5
2022-11-20T15:18:09.327Z,11.5
2022-11-20T15:19:25.563Z,12.1
2022-11-20T15:20:41.795Z,9.9
2022-11-20T15:21:58.033Z,12.2
2022-11-20T15:23:14.284Z,10.7
2022-11-20T15:24:29.521Z,11.1
2022-11-20T15:25:45.770Z,12.7
2022-11-20T15:27:02.002Z,12
2022-11-20T15:28:18.240Z,12.1
2022-11-20T15:29:34.488Z,16.8
2022-11-20T15:30:50.731Z,12.8
2022-11-20T15:32:06.959Z,13
2022-11-20T15:33:23.203Z,13.5
2022-11-20T15:34:39.438Z,11.9
2022-11-20T15:35:55.696Z,11.3
2022-11-20T15:37:11.927Z,12.5
2022-11-20T15:38:28.175Z,12.3
2022-11-20T15:39:44.413Z,10.1
2022-11-20T15:40:59.651Z,10.1
2022-11-20T15:42:15.894Z,11.6
2022-11-20T15:43:32.136Z,10.1
2022-11-20T15:44:48.389Z,13.7
2022-11-20T15:46:04.667Z,9.9
2022-11-20T15:47:20.963Z,18.2
2022-11-20T15:48:37.259Z,10.7
2022-11-20T15:49:53.549Z,13.5
2022-11-20T15:51:09.851Z,13.7
2022-11-20T15:52:26.141Z,11.6
2022-11-20T15:53:42.440Z,13.7
2022-11-20T15:54:58.728Z,13.9
2022-11-20T15:56:15.034Z,14.8
2022-11-20T15:57:30.335Z,13.5
2022-11-20T15:58:46.632Z,15.5
2022-11-20T16:00:02.925Z,14
2022-11-20T16:01:19.225Z,12.5
2022-11-20T16:02:35.509Z,11.5
2022-11-20T16:03:51.794Z,14.4
2022-11-20T16:05:08.102Z,12
2022-11-20T16:06:24.395Z,11.5
2022-11-20T16:07:40.678Z,13.6
2022-11-20T16:08:56.973Z,13.7
2022-11-20T16:10:13.277Z,12.9
2022-11-20T16:11:29.563Z,14.4
2022-11-20T16:12:45.858Z,11.3
2022-11-20T16:14:01.160Z,13.1
2022-11-20T16:15:17.456Z,16.5
2022-11-20T16:16:33.753Z,15.9
2022-11-20T16:17:50.038Z,14.3
2022-11-20T16:19:06.346Z,13
2022-11-20T16:20:22.634Z,16.1
2022-11-20T16:21:38.927Z,20.1
2022-11-20T16:22:55.230Z,16.8
2022-11-20T16:24:11.512Z,17.5
2022-11-20T16:25:27.809Z,14.2
2022-11-20T16:26:44.106Z,16.9
2022-11-20T16:28:00.387Z,16
2022-11-20T16:29:16.688Z,17.2
2022-11-20T16:30:32.004Z,19
2022-11-20T16:31:48.302Z,22.4
2022-11-20T16:33:04.593Z,13.2
2022-11-20T16:34:20.885Z,16.5
2022-11-20T16:35:37.184Z,13.2
2022-11-20T16:36:53.467Z,11.9
2022-11-20T16:38:08.778Z,13.6
2022-11-20T16:39:25.077Z,11.8
2022-11-20T16:40:41.373Z,16
2022-11-20T16:41:57.664Z,12.6
2022-11-20T16:43:13.951Z,14.4
2022-11-20T16:44:30.245Z,10.7
2022-11-20T16:45:46.550Z,12.1
2022-11-20T16:47:02.844Z,13.1
2022-11-20T16:48:19.136Z,13
2022-11-20T16:49:35.427Z,11.2
2022-11-20T16:50:51.717Z,13.1
2022-11-20T16:52:08.017Z,10.7
2022-11-20T16:53:24.306Z,14.3
2022-11-20T16:54:39.614Z,15.8
2022-11-20T16:55:55.908Z,10.9
2022-11-20T16:57:12.198Z,11.5
2022-11-20T16:58:28.508Z,15.8
2022-11-20T16:59:44.787Z,14.5
2022-11-20T17:01:01.080Z,15
2022-11-20T17:02:17.384Z,19.5
2022-11-20T17:03:33.666Z,16.4
2022-11-20T17:04:49.958Z,15.7
2022-11-20T17:06:06.255Z,14.8
2022-11-20T17:07:22.557Z,14.5
2022-11-20T17:08:38.842Z,14.2